sensor_id;sensor_type;location;lat;lon;timestamp;temperature;humidity
42145;DHT22;27813;43.516;11.890;2022-12-05T00:01:24;10.10;97.10
42145;DHT22;27813;43.516;11.890;2022-12-05T00:05:29;10.10;97.10
42145;DHT22;27813;43.516;11.890;2022-12-05T00:09:33;10.00;97.10
42145;DHT22;27813;43.516;11.890;2022-12-05T00:13:37;10.00;97.00
42145;DHT22;27813;43.516;11.890;2022-12-05T00:17:43;10.00;97.00
42145;DHT22;27813;43.516;11.890;2022-12-05T00:21:47;10.00;97.10
42145;DHT22;27813;43.516;11.890;2022-12-05T00:25:51;10.00;97.10
42145;DHT22;27813;43.516;11.890;2022-12-05T00:29:55;10.00;97.10
42145;DHT22;27813;43.516;11.890;2022-12-05T05:31:11;9.80;97.40
42145;DHT22;27813;43.516;11.890;2022-12-05T05:35:21;9.80;97.40
42145;DHT22;27813;43.516;11.890;2022-12-05T05:39:25;9.90;97.30
42145;DHT22;27813;43.516;11.890;2022-12-05T05:43:31;9.80;97.30
42145;DHT22;27813;43.516;11.890;2022-12-05T05:47:35;9.90;97.30
42145;DHT22;27813;43.516;11.890;2022-12-05T05:51:39;9.90;97.30
42145;DHT22;27813;43.516;11.890;2022-12-05T05:55:43;9.90;97.40
42145;DHT22;27813;43.516;11.890;2022-12-05T05:59:47;10.00;97.40
42145;DHT22;27813;43.516;11.890;2022-12-05T06:03:52;10.00;97.40
42145;DHT22;27813;43.516;11.890;2022-12-05T06:07:56;10.00;97.30
42145;DHT22;27813;43.516;11.890;2022-12-05T06:12:00;10.00;97.30
42145;DHT22;27813;43.516;11.890;2022-12-05T06:16:17;10.00;97.40
42145;DHT22;27813;43.516;11.890;2022-12-05T06:20:33;10.00;97.30
42145;DHT22;27813;43.516;11.890;2022-12-05T06:24:37;10.10;97.40
42145;DHT22;27813;43.516;11.890;2022-12-05T06:28:41;10.10;97.40
42145;DHT22;27813;43.516;11.890;2022-12-05T06:32:47;10.10;97.30
42145;DHT22;27813;43.516;11.890;2022-12-05T06:36:51;10.10;97.30
42145;DHT22;27813;43.516;11.890;2022-12-05T06:40:55;10.10;97.30
42145;DHT22;27813;43.516;11.890;2022-12-05T06:44:59;10.10;97.40
42145;DHT22;27813;43.516;11.890;2022-12-05T06:49:03;10.10;97.30
42145;DHT22;27813;43.516;11.890;2022-12-05T06:53:08;10.10;97.40
42145;DHT22;27813;43.516;11.890;2022-12-05T06:57:13;10.20;97.40
42145;DHT22;27813;43.516;11.890;2022-12-05T07:01:22;10.20;97.40
42145;DHT22;27813;43.516;11.890;2022-12-05T07:05:45;10.20;97.40
42145;DHT22;27813;43.516;11.890;2022-12-05T07:09:49;10.20;97.40
42145;DHT22;27813;43.516;11.890;2022-12-05T07:13:56;10.20;97.40
42145;DHT22;27813;43.516;11.890;2022-12-05T07:18:00;10.20;97.40
42145;DHT22;27813;43.516;11.890;2022-12-05T07:22:04;10.20;97.40
42145;DHT22;27813;43.516;11.890;2022-12-05T07:26:21;10.30;97.40
42145;DHT22;27813;43.516;11.890;2022-12-05T07:30:26;10.40;97.40
42145;DHT22;27813;43.516;11.890;2022-12-05T07:34:30;10.40;97.40
42145;DHT22;27813;43.516;11.890;2022-12-05T07:38:34;10.40;97.40
42145;DHT22;27813;43.516;11.890;2022-12-05T07:42:39;10.40;97.40
42145;DHT22;27813;43.516;11.890;2022-12-05T07:46:43;10.40;97.40
42145;DHT22;27813;43.516;11.890;2022-12-05T07:50:47;10.40;97.50
42145;DHT22;27813;43.516;11.890;2022-12-05T07:54:51;10.40;97.40
42145;DHT22;27813;43.516;11.890;2022-12-05T07:58:56;10.50;97.40
42145;DHT22;27813;43.516;11.890;2022-12-05T08:03:01;10.50;97.40
42145;DHT22;27813;43.516;11.890;2022-12-05T08:07:09;10.50;97.40
42145;DHT22;27813;43.516;11.890;2022-12-05T08:11:15;10.50;97.40
42145;DHT22;27813;43.516;11.890;2022-12-05T08:15:21;10.50;97.40
42145;DHT22;27813;43.516;11.890;2022-12-05T08:19:28;10.50;97.40
42145;DHT22;27813;43.516;11.890;2022-12-05T08:23:33;10.50;97.40
42145;DHT22;27813;43.516;11.890;2022-12-05T08:27:38;10.60;97.50
42145;DHT22;27813;43.516;11.890;2022-12-05T08:31:43;10.70;97.50
42145;DHT22;27813;43.516;11.890;2022-12-05T08:35:50;10.80;97.50
42145;DHT22;27813;43.516;11.890;2022-12-05T08:39:54;10.90;97.60
42145;DHT22;27813;43.516;11.890;2022-12-05T08:44:03;10.90;97.50
42145;DHT22;27813;43.516;11.890;2022-12-05T08:48:08;11.00;97.40
42145;DHT22;27813;43.516;11.890;2022-12-05T08:52:12;11.00;97.40
42145;DHT22;27813;43.516;11.890;2022-12-05T08:56:17;11.20;97.50
42145;DHT22;27813;43.516;11.890;2022-12-05T09:00:29;11.30;97.50
42145;DHT22;27813;43.516;11.890;2022-12-05T09:04:34;11.30;97.20
42145;DHT22;27813;43.516;11.890;2022-12-05T09:08:39;11.20;97.20
42145;DHT22;27813;43.516;11.890;2022-12-05T09:12:46;11.20;97.10
42145;DHT22;27813;43.516;11.890;2022-12-05T09:16:50;11.20;97.10
42145;DHT22;27813;43.516;11.890;2022-12-05T09:20:54;11.10;97.10
42145;DHT22;27813;43.516;11.890;2022-12-05T09:24:58;11.10;97.20
42145;DHT22;27813;43.516;11.890;2022-12-05T09:29:03;11.10;97.20
42145;DHT22;27813;43.516;11.890;2022-12-05T09:33:07;11.10;97.30
42145;DHT22;27813;43.516;11.890;2022-12-05T09:37:11;11.20;97.50
42145;DHT22;27813;43.516;11.890;2022-12-05T09:41:58;11.30;97.50
42145;DHT22;27813;43.516;11.890;2022-12-05T09:46:15;11.30;97.40
42145;DHT22;27813;43.516;11.890;2022-12-05T09:50:27;11.30;97.30
42145;DHT22;27813;43.516;11.890;2022-12-05T09:54:32;11.30;97.20
42145;DHT22;27813;43.516;11.890;2022-12-05T09:58:51;11.20;97.20
42145;DHT22;27813;43.516;11.890;2022-12-05T10:07:38;11.20;97.20
42145;DHT22;27813;43.516;11.890;2022-12-05T10:16:17;11.10;97.30
42145;DHT22;27813;43.516;11.890;2022-12-05T10:20:27;11.20;97.40
42145;DHT22;27813;43.516;11.890;2022-12-05T10:24:45;11.20;97.50
42145;DHT22;27813;43.516;11.890;2022-12-05T10:33:10;11.40;97.50
42145;DHT22;27813;43.516;11.890;2022-12-05T10:37:16;11.50;97.50
42145;DHT22;27813;43.516;11.890;2022-12-05T10:41:21;11.60;97.50
42145;DHT22;27813;43.516;11.890;2022-12-05T10:45:26;11.50;97.30
42145;DHT22;27813;43.516;11.890;2022-12-05T10:49:31;11.50;97.20
42145;DHT22;27813;43.516;11.890;2022-12-05T10:53:41;11.50;97.20
42145;DHT22;27813;43.516;11.890;2022-12-05T10:57:51;11.40;97.20
42145;DHT22;27813;43.516;11.890;2022-12-05T11:02:23;11.40;97.20
42145;DHT22;27813;43.516;11.890;2022-12-05T11:06:30;11.50;97.30
42145;DHT22;27813;43.516;11.890;2022-12-05T11:10:36;11.50;97.40
42145;DHT22;27813;43.516;11.890;2022-12-05T11:15:03;11.50;97.40
42145;DHT22;27813;43.516;11.890;2022-12-05T11:23:28;11.40;97.20
42145;DHT22;27813;43.516;11.890;2022-12-05T11:27:33;11.40;97.20
42145;DHT22;27813;43.516;11.890;2022-12-05T11:31:38;11.40;97.30
42145;DHT22;27813;43.516;11.890;2022-12-05T11:35:42;11.30;97.30
42145;DHT22;27813;43.516;11.890;2022-12-05T11:39:48;11.30;97.40
42145;DHT22;27813;43.516;11.890;2022-12-05T12:05:17;11.50;97.60
42145;DHT22;27813;43.516;11.890;2022-12-05T12:32:15;11.80;97.30
42145;DHT22;27813;43.516;11.890;2022-12-05T12:36:27;11.70;97.20
42145;DHT22;27813;43.516;11.890;2022-12-05T12:40:55;11.70;97.20
42145;DHT22;27813;43.516;11.890;2022-12-05T12:54:21;11.90;97.60
42145;DHT22;27813;43.516;11.890;2022-12-05T12:58:59;12.00;97.70
42145;DHT22;27813;43.516;11.890;2022-12-05T13:03:21;12.10;97.60
42145;DHT22;27813;43.516;11.890;2022-12-05T13:07:57;12.20;97.50
42145;DHT22;27813;43.516;11.890;2022-12-05T13:12:12;12.30;97.40
42145;DHT22;27813;43.516;11.890;2022-12-05T13:16:24;12.20;97.10
42145;DHT22;27813;43.516;11.890;2022-12-05T13:20:33;12.10;97.20
42145;DHT22;27813;43.516;11.890;2022-12-05T13:24:39;12.10;97.20
42145;DHT22;27813;43.516;11.890;2022-12-05T13:28:59;12.20;97.30
42145;DHT22;27813;43.516;11.890;2022-12-05T13:33:07;12.40;97.40
42145;DHT22;27813;43.516;11.890;2022-12-05T13:37:25;12.40;97.30
42145;DHT22;27813;43.516;11.890;2022-12-05T13:41:54;12.40;97.10
42145;DHT22;27813;43.516;11.890;2022-12-05T13:46:32;12.40;97.10
42145;DHT22;27813;43.516;11.890;2022-12-05T13:50:54;12.40;97.10
42145;DHT22;27813;43.516;11.890;2022-12-05T13:55:29;12.40;97.00
42145;DHT22;27813;43.516;11.890;2022-12-05T14:00:22;12.40;97.10
42145;DHT22;27813;43.516;11.890;2022-12-05T14:04:46;12.40;97.20
42145;DHT22;27813;43.516;11.890;2022-12-05T14:08:55;12.40;97.20
42145;DHT22;27813;43.516;11.890;2022-12-05T14:17:18;12.50;97.20
42145;DHT22;27813;43.516;11.890;2022-12-05T14:21:50;12.50;97.10
42145;DHT22;27813;43.516;11.890;2022-12-05T14:35:40;12.50;96.80
42145;DHT22;27813;43.516;11.890;2022-12-05T14:39:55;12.40;96.80
42145;DHT22;27813;43.516;11.890;2022-12-05T14:44:01;12.30;96.90
42145;DHT22;27813;43.516;11.890;2022-12-05T14:52:23;12.20;97.20
42145;DHT22;27813;43.516;11.890;2022-12-05T14:56:28;12.30;97.40
42145;DHT22;27813;43.516;11.890;2022-12-05T15:00:33;12.40;97.30
42145;DHT22;27813;43.516;11.890;2022-12-05T15:09:55;12.20;97.10
42145;DHT22;27813;43.516;11.890;2022-12-05T15:14:21;12.10;96.90
42145;DHT22;27813;43.516;11.890;2022-12-05T15:18:46;12.00;97.00
42145;DHT22;27813;43.516;11.890;2022-12-05T15:22:52;11.90;97.10
42145;DHT22;27813;43.516;11.890;2022-12-05T15:26:58;11.80;97.10
42145;DHT22;27813;43.516;11.890;2022-12-05T15:31:08;11.80;97.20
42145;DHT22;27813;43.516;11.890;2022-12-05T15:35:15;11.80;97.20
42145;DHT22;27813;43.516;11.890;2022-12-05T15:39:22;11.70;97.20
42145;DHT22;27813;43.516;11.890;2022-12-05T15:43:32;11.70;97.20
42145;DHT22;27813;43.516;11.890;2022-12-05T15:56:31;11.50;97.20
42145;DHT22;27813;43.516;11.890;2022-12-05T16:00:40;11.50;97.30
42145;DHT22;27813;43.516;11.890;2022-12-05T16:04:50;11.50;97.30
42145;DHT22;27813;43.516;11.890;2022-12-05T16:08:56;11.40;97.20
42145;DHT22;27813;43.516;11.890;2022-12-05T16:13:22;11.30;97.00
42145;DHT22;27813;43.516;11.890;2022-12-05T16:17:35;11.20;97.10
42145;DHT22;27813;43.516;11.890;2022-12-05T16:21:46;11.10;97.10
42145;DHT22;27813;43.516;11.890;2022-12-05T16:25:50;11.00;97.10
42145;DHT22;27813;43.516;11.890;2022-12-05T16:30:17;11.00;97.20
42145;DHT22;27813;43.516;11.890;2022-12-05T16:34:24;11.00;97.20
42145;DHT22;27813;43.516;11.890;2022-12-05T16:38:30;10.90;97.20
42145;DHT22;27813;43.516;11.890;2022-12-05T16:42:34;10.80;97.10
42145;DHT22;27813;43.516;11.890;2022-12-05T16:46:42;10.70;97.10
42145;DHT22;27813;43.516;11.890;2022-12-05T16:50:47;10.60;96.90
42145;DHT22;27813;43.516;11.890;2022-12-05T16:54:54;10.50;96.90
42145;DHT22;27813;43.516;11.890;2022-12-05T16:59:06;10.50;97.00
42145;DHT22;27813;43.516;11.890;2022-12-05T17:03:13;10.50;97.20
42145;DHT22;27813;43.516;11.890;2022-12-05T17:07:38;10.50;97.40
42145;DHT22;27813;43.516;11.890;2022-12-05T17:11:45;10.50;97.40
42145;DHT22;27813;43.516;11.890;2022-12-05T17:15:50;10.60;97.40
42145;DHT22;27813;43.516;11.890;2022-12-05T17:19:56;10.50;97.30
42145;DHT22;27813;43.516;11.890;2022-12-05T17:24:00;10.50;97.20
42145;DHT22;27813;43.516;11.890;2022-12-05T17:28:04;10.40;97.10
42145;DHT22;27813;43.516;11.890;2022-12-05T17:32:09;10.40;97.20
42145;DHT22;27813;43.516;11.890;2022-12-05T17:36:16;10.40;97.20
42145;DHT22;27813;43.516;11.890;2022-12-05T17:40:20;10.40;97.30
42145;DHT22;27813;43.516;11.890;2022-12-05T17:44:25;10.40;97.30
42145;DHT22;27813;43.516;11.890;2022-12-05T17:48:29;10.40;97.40
42145;DHT22;27813;43.516;11.890;2022-12-05T17:52:35;10.40;97.50
42145;DHT22;27813;43.516;11.890;2022-12-05T17:56:38;10.50;97.60
42145;DHT22;27813;43.516;11.890;2022-12-05T18:00:44;10.50;97.60
42145;DHT22;27813;43.516;11.890;2022-12-05T18:04:48;10.50;97.60
42145;DHT22;27813;43.516;11.890;2022-12-05T18:08:52;10.50;97.40
42145;DHT22;27813;43.516;11.890;2022-12-05T18:12:57;10.40;97.40
42145;DHT22;27813;43.516;11.890;2022-12-05T18:17:03;10.40;97.50
42145;DHT22;27813;43.516;11.890;2022-12-05T18:21:09;10.40;97.50
42145;DHT22;27813;43.516;11.890;2022-12-05T18:25:14;10.50;97.50
42145;DHT22;27813;43.516;11.890;2022-12-05T18:29:18;10.50;97.60
42145;DHT22;27813;43.516;11.890;2022-12-05T18:33:22;10.60;97.60
42145;DHT22;27813;43.516;11.890;2022-12-05T18:37:27;10.60;97.60
42145;DHT22;27813;43.516;11.890;2022-12-05T18:41:31;10.70;97.60
42145;DHT22;27813;43.516;11.890;2022-12-05T18:45:35;10.60;97.60
42145;DHT22;27813;43.516;11.890;2022-12-05T18:49:41;10.50;97.50
42145;DHT22;27813;43.516;11.890;2022-12-05T18:53:47;10.50;97.40
42145;DHT22;27813;43.516;11.890;2022-12-05T18:57:56;10.60;97.60
42145;DHT22;27813;43.516;11.890;2022-12-05T19:02:05;10.60;97.60
42145;DHT22;27813;43.516;11.890;2022-12-05T19:06:11;10.70;97.70
42145;DHT22;27813;43.516;11.890;2022-12-05T19:10:16;10.70;97.70
42145;DHT22;27813;43.516;11.890;2022-12-05T19:14:21;10.70;97.70
42145;DHT22;27813;43.516;11.890;2022-12-05T19:18:26;10.80;97.70
42145;DHT22;27813;43.516;11.890;2022-12-05T19:22:31;10.80;97.70
42145;DHT22;27813;43.516;11.890;2022-12-05T19:26:36;10.90;97.70
42145;DHT22;27813;43.516;11.890;2022-12-05T19:30:40;10.80;97.60
42145;DHT22;27813;43.516;11.890;2022-12-05T19:34:46;10.70;97.50
42145;DHT22;27813;43.516;11.890;2022-12-05T19:38:54;10.70;97.60
42145;DHT22;27813;43.516;11.890;2022-12-05T19:43:00;10.80;97.60
42145;DHT22;27813;43.516;11.890;2022-12-05T19:47:09;10.80;97.70
42145;DHT22;27813;43.516;11.890;2022-12-05T19:51:19;10.90;97.80
42145;DHT22;27813;43.516;11.890;2022-12-05T19:55:25;10.90;97.80
42145;DHT22;27813;43.516;11.890;2022-12-05T19:59:32;10.90;97.80
42145;DHT22;27813;43.516;11.890;2022-12-05T20:03:37;10.90;97.80
42145;DHT22;27813;43.516;11.890;2022-12-05T20:07:42;10.90;97.80
42145;DHT22;27813;43.516;11.890;2022-12-05T20:11:48;10.90;97.70
42145;DHT22;27813;43.516;11.890;2022-12-05T20:16:04;10.90;97.60
42145;DHT22;27813;43.516;11.890;2022-12-05T20:20:14;10.90;97.70
42145;DHT22;27813;43.516;11.890;2022-12-05T20:24:19;10.90;97.70
42145;DHT22;27813;43.516;11.890;2022-12-05T20:28:24;11.00;97.70
42145;DHT22;27813;43.516;11.890;2022-12-05T20:32:33;11.00;97.70
42145;DHT22;27813;43.516;11.890;2022-12-05T20:36:38;11.00;97.70
42145;DHT22;27813;43.516;11.890;2022-12-05T20:40:45;11.00;97.70
42145;DHT22;27813;43.516;11.890;2022-12-05T20:44:50;11.00;97.70
42145;DHT22;27813;43.516;11.890;2022-12-05T20:48:55;11.00;97.70
42145;DHT22;27813;43.516;11.890;2022-12-05T20:53:03;11.10;97.70
42145;DHT22;27813;43.516;11.890;2022-12-05T20:57:09;11.10;97.70
42145;DHT22;27813;43.516;11.890;2022-12-05T21:01:17;11.10;97.70
42145;DHT22;27813;43.516;11.890;2022-12-05T21:05:24;11.10;97.60
42145;DHT22;27813;43.516;11.890;2022-12-05T21:09:28;11.10;97.70
42145;DHT22;27813;43.516;11.890;2022-12-05T21:13:40;11.10;97.70
42145;DHT22;27813;43.516;11.890;2022-12-05T21:17:46;11.20;97.70
42145;DHT22;27813;43.516;11.890;2022-12-05T21:21:53;11.20;97.70
42145;DHT22;27813;43.516;11.890;2022-12-05T21:26:05;11.20;97.70
42145;DHT22;27813;43.516;11.890;2022-12-05T21:30:11;11.20;97.70
42145;DHT22;27813;43.516;11.890;2022-12-05T21:34:18;11.20;97.70
42145;DHT22;27813;43.516;11.890;2022-12-05T21:38:28;11.20;97.60
42145;DHT22;27813;43.516;11.890;2022-12-05T21:42:36;11.30;97.70
42145;DHT22;27813;43.516;11.890;2022-12-05T21:46:41;11.30;97.70
42145;DHT22;27813;43.516;11.890;2022-12-05T21:50:48;11.30;97.70
42145;DHT22;27813;43.516;11.890;2022-12-05T21:54:52;11.40;97.70
42145;DHT22;27813;43.516;11.890;2022-12-05T21:58:57;11.30;97.70
42145;DHT22;27813;43.516;11.890;2022-12-05T22:03:01;11.40;97.70
42145;DHT22;27813;43.516;11.890;2022-12-05T22:07:06;11.40;97.70
42145;DHT22;27813;43.516;11.890;2022-12-05T22:11:15;11.40;97.70
42145;DHT22;27813;43.516;11.890;2022-12-05T22:15:20;11.50;97.70
42145;DHT22;27813;43.516;11.890;2022-12-05T22:19:24;11.40;97.70
42145;DHT22;27813;43.516;11.890;2022-12-05T22:23:28;11.50;97.70
42145;DHT22;27813;43.516;11.890;2022-12-05T22:27:33;11.50;97.70
42145;DHT22;27813;43.516;11.890;2022-12-05T22:31:37;11.50;97.60
42145;DHT22;27813;43.516;11.890;2022-12-05T22:35:41;11.60;97.60
42145;DHT22;27813;43.516;11.890;2022-12-05T22:39:45;11.50;97.50
42145;DHT22;27813;43.516;11.890;2022-12-05T22:43:54;11.50;97.50
42145;DHT22;27813;43.516;11.890;2022-12-05T22:47:59;11.50;97.50
42145;DHT22;27813;43.516;11.890;2022-12-05T22:52:03;11.50;97.60
42145;DHT22;27813;43.516;11.890;2022-12-05T22:56:09;11.50;97.60
42145;DHT22;27813;43.516;11.890;2022-12-05T23:00:14;11.50;97.60
42145;DHT22;27813;43.516;11.890;2022-12-05T23:04:18;11.50;97.50
42145;DHT22;27813;43.516;11.890;2022-12-05T23:08:23;11.50;97.50
42145;DHT22;27813;43.516;11.890;2022-12-05T23:12:27;11.50;97.50
42145;DHT22;27813;43.516;11.890;2022-12-05T23:16:32;11.50;97.50
42145;DHT22;27813;43.516;11.890;2022-12-05T23:20:39;11.50;97.50
42145;DHT22;27813;43.516;11.890;2022-12-05T23:24:44;11.50;97.50
42145;DHT22;27813;43.516;11.890;2022-12-05T23:28:48;11.30;97.30
42145;DHT22;27813;43.516;11.890;2022-12-05T23:32:53;11.30;97.30
42145;DHT22;27813;43.516;11.890;2022-12-05T23:36:57;11.20;97.40
42145;DHT22;27813;43.516;11.890;2022-12-05T23:45:10;11.20;97.50
42145;DHT22;27813;43.516;11.890;2022-12-05T23:49:13;11.20;97.40
42145;DHT22;27813;43.516;11.890;2022-12-05T23:53:17;11.20;97.50
42145;DHT22;27813;43.516;11.890;2022-12-05T23:57:22;11.20;97.60
